Time;durP1;ratioP1;P1;durP2;ratioP2;P2;SDS_P1;SDS_P2;PMS_P1;PMS_P2;Temp;Humidity;BMP_temperature;BMP_pressure;BME280_temperature;BME280_humidity;BME280_pressure;Samples;Min_cycle;Max_cycle;Signal;HPM_P1;HPM_P2
2024/04/02 00:01:59;;;;;;;3.77;2.70;;;23.70;70.70;;;;;;5081747;28;20690;-73
2024/04/02 00:04:27;;;;;;;8.03;3.00;;;23.70;70.50;;;;;;5078730;28;20207;-71
2024/04/02 00:06:54;;;;;;;4.40;2.73;;;23.70;70.80;;;;;;5082668;28;20191;-72
2024/04/02 00:09:22;;;;;;;4.00;2.20;;;23.80;71.20;;;;;;5076587;28;20191;-72
2024/04/02 00:11:49;;;;;;;3.10;2.50;;;23.80;70.10;;;;;;5081009;28;20186;-72
2024/04/02 00:14:17;;;;;;;4.93;2.70;;;23.90;70.40;;;;;;5077050;28;20187;-72
2024/04/02 00:16:44;;;;;;;4.00;2.60;;;24.00;70.00;;;;;;5079550;28;20219;-71
2024/04/02 00:19:13;;;;;;;3.77;2.97;;;24.00;70.20;;;;;;5080410;28;20187;-72
2024/04/02 00:21:40;;;;;;;5.17;2.73;;;23.90;70.20;;;;;;5074752;28;20179;-73
2024/04/02 00:24:07;;;;;;;5.33;2.87;;;24.00;70.30;;;;;;5074084;28;20182;-73
2024/04/02 00:26:35;;;;;;;8.43;3.10;;;24.00;69.40;;;;;;5083876;28;20708;-72
2024/04/02 00:29:02;;;;;;;4.53;2.63;;;24.00;69.70;;;;;;5080763;28;20205;-71
2024/04/02 00:31:30;;;;;;;5.83;3.10;;;24.00;69.20;;;;;;5078678;28;20168;-72
2024/04/02 00:33:57;;;;;;;7.87;2.70;;;24.00;68.60;;;;;;5080938;28;20183;-71
2024/04/02 00:36:24;;;;;;;3.70;3.03;;;24.00;69.20;;;;;;5079981;28;20234;-72
2024/04/02 00:38:52;;;;;;;2.97;2.67;;;24.00;69.70;;;;;;5082227;28;20301;-72
2024/04/02 00:41:19;;;;;;;2.87;2.50;;;24.00;70.10;;;;;;5082357;28;20166;-71
2024/04/02 00:43:46;;;;;;;5.40;2.97;;;23.80;70.20;;;;;;5082917;28;20187;-72
2024/04/02 00:46:14;;;;;;;2.97;2.70;;;23.80;71.10;;;;;;5072927;28;20675;-71
2024/04/02 00:48:42;;;;;;;3.70;2.57;;;23.70;71.00;;;;;;5081166;28;20183;-70
2024/04/02 00:51:09;;;;;;;4.43;3.07;;;23.70;72.90;;;;;;5082179;28;20175;-68
2024/04/02 00:53:37;;;;;;;6.70;3.10;;;23.50;73.30;;;;;;5077584;28;20188;-70
2024/04/02 00:56:05;;;;;;;6.63;3.10;;;23.40;74.30;;;;;;5080149;28;20175;-69
2024/04/02 00:58:33;;;;;;;7.17;3.10;;;23.20;75.00;;;;;;5078253;28;20190;-68
2024/04/02 01:01:05;;;;;;;6.13;3.60;;;23.00;75.50;;;;;;5075555;28;20182;-70
2024/04/02 01:03:33;;;;;;;5.20;3.07;;;22.90;76.40;;;;;;5074855;28;20321;-69
2024/04/02 01:06:02;;;;;;;3.97;2.90;;;22.80;76.70;;;;;;5076454;28;20672;-69
2024/04/02 01:08:31;;;;;;;6.50;3.37;;;22.70;76.90;;;;;;5075999;28;20175;-69
2024/04/02 01:10:58;;;;;;;8.27;3.87;;;22.60;77.40;;;;;;5076220;28;20194;-71
2024/04/02 01:13:26;;;;;;;7.77;3.67;;;22.60;78.10;;;;;;5070779;28;20186;-68
2024/04/02 01:16:02;;;;;;;8.13;4.03;;;22.50;78.10;;;;;;5080015;28;20187;-72
2024/04/02 01:18:29;;;;;;;10.87;4.67;;;22.50;78.80;;;;;;5079660;28;20179;-68
2024/04/02 01:20:57;;;;;;;6.67;4.20;;;22.40;79.80;;;;;;5079349;28;20539;-69
2024/04/02 01:23:24;;;;;;;5.00;4.60;;;22.30;79.10;;;;;;5073851;28;20660;-68
2024/04/02 01:25:52;;;;;;;9.27;4.97;;;22.40;79.00;;;;;;5079381;28;20902;-71
2024/04/02 01:28:19;;;;;;;6.80;5.23;;;22.40;78.90;;;;;;5079744;28;20178;-72
2024/04/02 01:30:46;;;;;;;7.63;6.83;;;22.40;79.50;;;;;;5076239;28;20591;-75
2024/04/02 01:33:17;;;;;;;13.53;12.53;;;22.30;79.90;;;;;;5080021;28;20269;-74
2024/04/02 01:35:44;;;;;;;29.97;27.97;;;22.20;80.30;;;;;;5076776;28;20183;-75
2024/04/02 01:38:12;;;;;;;59.97;56.33;;;22.20;81.00;;;;;;5079368;28;20214;-76
2024/04/02 01:40:39;;;;;;;70.63;66.80;;;22.00;82.30;;;;;;5079458;28;20281;-70
2024/04/02 01:43:07;;;;;;;84.53;79.63;;;21.80;83.80;;;;;;5079217;28;20186;-71
2024/04/02 01:45:35;;;;;;;109.57;103.37;;;21.60;84.90;;;;;;5080868;28;20176;-72
2024/04/02 01:48:03;;;;;;;125.97;119.17;;;21.50;85.90;;;;;;5069462;28;20178;-71
2024/04/02 01:50:30;;;;;;;132.67;125.53;;;21.30;86.50;;;;;;5079581;28;20598;-69
2024/04/02 01:52:58;;;;;;;150.23;142.20;;;21.30;87.10;;;;;;5077089;28;20206;-70
2024/04/02 01:55:25;;;;;;;163.70;155.40;;;21.20;87.70;;;;;;5072553;28;20198;-78
2024/04/02 01:57:52;;;;;;;191.63;181.93;;;21.20;88.00;;;;;;5073161;28;20214;-73
2024/04/02 02:00:21;;;;;;;190.93;181.40;;;21.10;88.20;;;;;;5073305;28;20172;-73
2024/04/02 02:02:50;;;;;;;233.07;221.97;;;21.10;88.50;;;;;;5077094;28;20190;-75
2024/04/02 02:05:18;;;;;;;246.80;234.73;;;21.10;88.70;;;;;;5080304;28;20277;-72
2024/04/02 02:07:46;;;;;;;242.13;230.47;;;21.10;88.70;;;;;;5074392;28;20171;-68
2024/04/02 02:10:14;;;;;;;256.17;243.93;;;21.10;88.80;;;;;;5073543;28;20186;-71
2024/04/02 02:12:41;;;;;;;264.20;251.00;;;21.10;88.90;;;;;;5078187;28;20179;-70
2024/04/02 02:15:09;;;;;;;257.20;244.97;;;21.10;88.90;;;;;;5074927;28;20205;-70
2024/04/02 02:17:36;;;;;;;258.30;245.70;;;21.20;88.80;;;;;;5077278;28;20268;-70
2024/04/02 02:20:05;;;;;;;283.07;269.70;;;21.20;88.60;;;;;;5077669;28;20237;-73
2024/04/02 02:22:36;;;;;;;279.57;266.27;;;21.20;89.00;;;;;;5075601;28;20262;-72
2024/04/02 02:25:04;;;;;;;284.40;271.17;;;21.20;89.20;;;;;;5076679;28;20187;-72
2024/04/02 02:27:32;;;;;;;285.80;272.40;;;21.10;89.10;;;;;;5074355;28;20179;-73
2024/04/02 02:30:00;;;;;;;277.77;264.70;;;21.20;89.30;;;;;;5077263;28;20267;-76
2024/04/02 02:32:27;;;;;;;292.87;278.97;;;21.20;89.40;;;;;;5073808;28;20193;-74
2024/04/02 02:34:55;;;;;;;294.93;280.83;;;21.20;89.50;;;;;;5070980;28;20188;-74
2024/04/02 02:37:22;;;;;;;278.57;265.17;;;21.30;89.70;;;;;;5074374;28;20215;-75
2024/04/02 02:39:50;;;;;;;288.83;275.27;;;21.30;89.60;;;;;;5077468;28;20222;-75
2024/04/02 02:42:17;;;;;;;267.13;254.47;;;21.30;89.70;;;;;;5077269;28;20201;-74
2024/04/02 02:44:46;;;;;;;270.23;257.30;;;21.30;89.50;;;;;;5078174;28;20183;-74
2024/04/02 02:47:13;;;;;;;281.93;268.77;;;21.40;89.50;;;;;;5073256;28;20274;-72
2024/04/02 02:49:41;;;;;;;251.80;239.30;;;21.40;89.50;;;;;;5076149;28;20182;-75
2024/04/02 02:52:08;;;;;;;267.70;254.97;;;21.40;89.30;;;;;;5073868;28;20543;-72
2024/04/02 02:54:35;;;;;;;284.27;270.97;;;21.50;89.30;;;;;;5074898;28;20175;-72
2024/04/02 02:57:03;;;;;;;251.97;239.53;;;21.60;89.10;;;;;;5079632;28;20214;-71
2024/04/02 02:59:30;;;;;;;283.47;270.27;;;21.60;88.90;;;;;;5079174;28;20170;-72
2024/04/02 03:01:58;;;;;;;269.90;257.13;;;21.60;88.80;;;;;;5075435;28;20496;-74
2024/04/02 03:04:25;;;;;;;283.03;269.33;;;21.60;88.70;;;;;;5075903;28;20545;-70
2024/04/02 03:06:53;;;;;;;278.03;265.20;;;21.70;88.90;;;;;;5064589;28;20187;-72
2024/04/02 03:09:20;;;;;;;298.33;284.27;;;21.80;89.00;;;;;;5073321;28;20177;-69
2024/04/02 03:11:48;;;;;;;295.80;281.90;;;21.80;89.00;;;;;;5078974;28;20190;-70
2024/04/02 03:14:15;;;;;;;287.27;274.03;;;21.70;88.90;;;;;;5065457;28;20183;-74
2024/04/02 03:16:43;;;;;;;282.10;268.90;;;21.60;88.80;;;;;;5076577;28;20229;-72
2024/04/02 03:19:11;;;;;;;312.53;297.80;;;21.50;89.10;;;;;;5080785;28;20187;-74
2024/04/02 03:21:39;;;;;;;324.90;309.70;;;21.60;89.70;;;;;;5081055;28;20192;-75
2024/04/02 03:24:06;;;;;;;339.70;323.80;;;21.70;89.80;;;;;;5070518;28;20178;-76
2024/04/02 03:26:34;;;;;;;355.70;339.37;;;21.70;90.20;;;;;;5076393;28;20581;-72
2024/04/02 03:29:01;;;;;;;342.93;327.23;;;21.80;90.20;;;;;;5073199;28;20228;-72
2024/04/02 03:31:29;;;;;;;359.87;343.17;;;21.60;90.30;;;;;;5079009;28;20185;-74
2024/04/02 03:33:58;;;;;;;374.70;357.47;;;21.50;90.50;;;;;;5074030;28;20266;-71
2024/04/02 03:36:25;;;;;;;389.60;371.73;;;21.60;90.80;;;;;;5078823;28;20175;-71
2024/04/02 03:38:53;;;;;;;371.40;354.30;;;21.60;90.80;;;;;;5081884;28;20830;-72
2024/04/02 03:41:20;;;;;;;380.40;363.03;;;21.60;90.90;;;;;;5078452;28;20187;-70
2024/04/02 03:43:49;;;;;;;361.17;344.70;;;21.60;90.90;;;;;;5076597;28;20186;-70
2024/04/02 03:46:17;;;;;;;369.80;352.87;;;21.70;91.10;;;;;;5075052;28;20187;-70
2024/04/02 03:48:48;;;;;;;351.43;335.07;;;21.80;90.90;;;;;;5095312;28;20190;-73
2024/04/02 03:51:16;;;;;;;322.13;307.37;;;21.80;90.40;;;;;;5079999;28;20179;-71
2024/04/02 03:53:43;;;;;;;282.10;268.97;;;21.90;90.40;;;;;;5079526;28;20233;-77
2024/04/02 03:56:11;;;;;;;276.83;263.90;;;22.00;90.10;;;;;;5076817;28;20180;-70
2024/04/02 03:58:38;;;;;;;259.57;247.40;;;22.00;89.60;;;;;;5075906;28;20212;-76
2024/04/02 04:01:08;;;;;;;218.37;207.73;;;22.20;89.10;;;;;;5074034;28;20266;-69
2024/04/02 04:03:36;;;;;;;211.70;201.27;;;22.20;88.40;;;;;;5079269;28;20305;-73
2024/04/02 04:06:05;;;;;;;172.37;163.87;;;22.30;88.40;;;;;;5073131;28;20187;-69
2024/04/02 04:08:34;;;;;;;173.77;164.97;;;22.40;87.60;;;;;;5075237;28;20270;-68
2024/04/02 04:11:03;;;;;;;155.17;147.53;;;22.70;87.50;;;;;;5081761;28;20233;-69
2024/04/02 04:13:31;;;;;;;152.03;144.27;;;22.60;86.80;;;;;;5079158;28;20510;-71
2024/04/02 04:16:00;;;;;;;141.27;134.27;;;22.70;86.90;;;;;;5077551;28;20202;-71
2024/04/02 04:18:28;;;;;;;124.60;118.50;;;22.80;86.30;;;;;;5072840;28;20226;-71
2024/04/02 04:20:58;;;;;;;97.90;93.00;;;22.90;85.80;;;;;;5074607;28;20236;-72
2024/04/02 04:23:25;;;;;;;96.10;91.13;;;23.00;84.90;;;;;;5062060;28;20279;-71
2024/04/02 04:26:01;;;;;;;59.67;56.57;;;23.20;85.60;;;;;;5075651;28;20182;-67
2024/04/02 04:28:30;;;;;;;54.97;51.97;;;23.30;83.50;;;;;;5076061;28;20702;-69
2024/04/02 04:31:02;;;;;;;61.37;58.03;;;23.40;83.40;;;;;;5082253;28;20266;-71
2024/04/02 04:33:31;;;;;;;52.27;49.50;;;23.40;84.20;;;;;;5075206;28;20183;-68
2024/04/02 04:35:59;;;;;;;31.13;29.43;;;23.60;84.20;;;;;;5096582;28;20567;-74
2024/04/02 04:38:30;;;;;;;33.17;31.10;;;23.80;81.70;;;;;;5075959;28;20223;-73
2024/04/02 04:40:58;;;;;;;12.77;11.97;;;23.90;82.30;;;;;;5074605;28;20675;-68
2024/04/02 04:43:25;;;;;;;5.03;4.63;;;24.40;80.70;;;;;;5073777;28;20663;-69
2024/04/02 04:46:00;;;;;;;2.20;2.10;;;25.20;78.60;;;;;;5092924;28;20236;-71
2024/04/02 04:48:27;;;;;;;3.60;1.90;;;25.50;76.00;;;;;;5075090;28;20232;-71
2024/04/02 04:51:05;;;;;;;2.07;1.83;;;25.50;74.60;;;;;;5074098;28;20265;-71
2024/04/02 04:53:34;;;;;;;4.63;1.97;;;24.80;76.50;;;;;;5074649;28;20179;-69
2024/04/02 04:56:03;;;;;;;2.40;1.60;;;25.00;77.60;;;;;;5078990;28;20183;-72
2024/04/02 04:58:31;;;;;;;2.57;1.50;;;25.90;75.10;;;;;;5077420;28;20266;-70
2024/04/02 05:00:59;;;;;;;2.47;1.10;;;26.40;74.50;;;;;;5076722;28;20314;-71
2024/04/02 05:03:26;;;;;;;1.97;1.20;;;27.10;70.30;;;;;;5074779;28;20176;-69
2024/04/02 05:06:07;;;;;;;2.30;1.20;;;27.70;68.70;;;;;;5073407;28;20187;-68
2024/04/02 05:08:37;;;;;;;1.53;1.00;;;27.30;69.50;;;;;;5074523;28;20183;-71
2024/04/02 05:11:07;;;;;;;1.63;0.90;;;27.30;69.80;;;;;;5072098;28;20186;-68
2024/04/02 05:13:40;;;;;;;1.70;0.80;;;27.30;69.20;;;;;;5077738;28;20179;-73
2024/04/02 05:16:07;;;;;;;5.00;1.33;;;27.00;71.10;;;;;;5072276;28;20286;-71
2024/04/02 05:18:35;;;;;;;1.10;1.00;;;27.10;70.40;;;;;;5073135;28;20211;-71
2024/04/02 05:21:03;;;;;;;2.13;0.93;;;27.00;69.90;;;;;;5073853;28;20522;-69
2024/04/02 05:23:30;;;;;;;4.00;0.93;;;27.30;69.30;;;;;;5077926;28;20699;-70
2024/04/02 05:26:02;;;;;;;2.93;1.10;;;27.80;67.60;;;;;;5079483;28;20333;-69
2024/04/02 05:28:29;;;;;;;1.77;0.90;;;27.70;66.80;;;;;;5079021;28;20664;-69
2024/04/02 05:30:56;;;;;;;2.10;1.10;;;28.10;67.60;;;;;;5079395;28;20172;-69
2024/04/02 05:33:24;;;;;;;3.37;1.00;;;28.40;66.20;;;;;;5080967;28;20259;-69
2024/04/02 05:35:51;;;;;;;4.10;1.00;;;28.90;64.40;;;;;;5082782;28;20283;-69
2024/04/02 05:38:19;;;;;;;0.93;0.80;;;29.00;63.60;;;;;;5081057;28;20239;-70
2024/04/02 05:40:46;;;;;;;0.97;0.70;;;29.00;63.10;;;;;;5083480;28;20182;-70
2024/04/02 05:43:13;;;;;;;1.30;0.90;;;29.00;64.40;;;;;;5080785;28;20180;-70
2024/04/02 05:45:41;;;;;;;2.37;0.90;;;28.80;63.10;;;;;;5081538;28;20255;-70
2024/04/02 05:48:08;;;;;;;4.23;1.13;;;28.80;64.30;;;;;;5075711;28;20269;-70
2024/04/02 05:50:36;;;;;;;1.93;1.00;;;28.90;63.10;;;;;;5074419;28;20190;-70
2024/04/02 05:53:07;;;;;;;2.63;1.00;;;28.90;63.80;;;;;;5073241;28;20257;-70
2024/04/02 05:55:34;;;;;;;4.00;1.00;;;29.10;63.10;;;;;;5075951;28;20301;-69
2024/04/02 05:58:01;;;;;;;1.40;1.30;;;29.00;64.10;;;;;;5057410;28;20214;-68
2024/04/02 06:00:30;;;;;;;1.37;1.23;;;29.40;61.30;;;;;;5074420;28;20184;-72
2024/04/02 06:02:57;;;;;;;2.80;1.00;;;29.50;61.60;;;;;;5075539;28;20178;-72
2024/04/02 06:05:25;;;;;;;2.20;1.17;;;29.80;60.50;;;;;;5074971;28;20175;-73
2024/04/02 06:07:57;;;;;;;2.28;1.30;;;29.80;59.00;;;;;;5080784;28;20664;-71
2024/04/02 06:10:26;;;;;;;3.60;1.25;;;29.60;60.00;;;;;;5071827;28;20525;-69
2024/04/02 06:12:54;;;;;;;3.05;0.90;;;29.60;60.40;;;;;;5081384;28;20178;-70
2024/04/02 06:15:24;;;;;;;1.25;1.00;;;29.90;58.80;;;;;;5075884;28;20551;-70
2024/04/02 06:17:52;;;;;;;1.55;1.10;;;30.20;57.50;;;;;;5081707;28;20776;-69
2024/04/02 06:20:20;;;;;;;1.67;0.80;;;30.30;57.60;;;;;;5069757;28;20634;-70
2024/04/02 06:22:47;;;;;;;2.15;0.95;;;30.40;57.30;;;;;;5075781;28;20294;-70
2024/04/02 06:25:15;;;;;;;4.18;0.90;;;30.50;56.60;;;;;;5054993;28;20556;-70
2024/04/02 06:27:42;;;;;;;4.87;1.37;;;30.20;56.80;;;;;;5073559;28;20637;-70
2024/04/02 06:30:10;;;;;;;0.80;0.80;;;30.80;56.70;;;;;;5075048;28;20695;-70
2024/04/02 06:32:40;;;;;;;2.87;1.13;;;30.90;55.50;;;;;;5078811;28;20222;-69
2024/04/02 06:35:08;;;;;;;2.83;1.08;;;31.00;54.40;;;;;;5076031;28;20214;-69
2024/04/02 06:37:35;;;;;;;1.48;1.08;;;30.90;55.10;;;;;;5078744;28;20221;-69
2024/04/02 06:40:03;;;;;;;1.10;0.88;;;30.70;56.00;;;;;;5075135;28;20226;-69
2024/04/02 06:42:30;;;;;;;1.08;0.90;;;30.10;56.70;;;;;;5072989;28;20198;-67
2024/04/02 06:44:58;;;;;;;0.80;0.70;;;30.10;57.00;;;;;;5070847;28;20685;-70
2024/04/02 06:47:25;;;;;;;1.08;0.88;;;29.80;57.60;;;;;;5077236;28;20233;-68
2024/04/02 06:49:52;;;;;;;1.33;1.00;;;29.70;56.80;;;;;;5073611;28;20198;-67
2024/04/02 06:52:20;;;;;;;1.10;0.90;;;29.60;57.00;;;;;;5070887;28;20940;-68
2024/04/02 06:54:47;;;;;;;1.33;1.20;;;29.10;57.10;;;;;;5072726;28;20190;-69
2024/04/02 06:57:15;;;;;;;1.17;0.90;;;29.60;56.50;;;;;;5075125;28;20326;-68
2024/04/02 06:59:42;;;;;;;1.93;1.00;;;29.40;56.20;;;;;;5076776;28;20214;-70
2024/04/02 07:02:10;;;;;;;1.63;1.03;;;29.30;55.90;;;;;;5074054;28;20192;-71
2024/04/02 07:04:37;;;;;;;2.70;1.00;;;29.00;57.30;;;;;;5076275;28;20611;-70
2024/04/02 07:07:05;;;;;;;1.50;1.00;;;29.20;56.60;;;;;;5075835;28;20171;-69
2024/04/02 07:09:33;;;;;;;1.70;1.30;;;28.80;56.90;;;;;;5074870;28;20321;-72
2024/04/02 07:12:01;;;;;;;2.77;1.20;;;28.90;57.40;;;;;;5076787;28;20178;-75
2024/04/02 07:14:28;;;;;;;3.13;0.97;;;28.80;56.90;;;;;;5074297;28;20187;-70
2024/04/02 07:16:55;;;;;;;2.10;1.00;;;28.20;57.60;;;;;;5074679;28;20206;-70
2024/04/02 07:19:24;;;;;;;1.40;1.00;;;28.40;57.70;;;;;;5074345;28;20272;-69
2024/04/02 07:21:51;;;;;;;1.97;1.10;;;28.10;55.40;;;;;;5072780;28;20270;-70
2024/04/02 07:24:19;;;;;;;1.93;1.10;;;27.50;56.80;;;;;;5073619;28;20201;-68
2024/04/02 07:26:46;;;;;;;5.30;1.10;;;27.00;50.70;;;;;;5077452;28;20810;-70
2024/04/02 07:29:13;;;;;;;1.80;0.90;;;26.60;44.30;;;;;;5081535;28;20214;-70
2024/04/02 07:31:41;;;;;;;2.23;0.90;;;26.40;42.90;;;;;;5076371;28;20198;-69
2024/04/02 07:34:09;;;;;;;1.90;0.90;;;26.30;42.30;;;;;;5077381;28;20183;-72
2024/04/02 07:36:37;;;;;;;3.77;1.30;;;26.20;40.40;;;;;;5071933;28;20557;-73
2024/04/02 07:39:07;;;;;;;3.33;1.23;;;26.00;39.90;;;;;;5079379;28;20225;-69
2024/04/02 07:41:34;;;;;;;2.93;0.90;;;25.90;40.10;;;;;;5076828;28;20258;-71
2024/04/02 07:44:02;;;;;;;2.70;1.30;;;25.80;40.20;;;;;;5069637;28;20186;-70
2024/04/02 07:46:29;;;;;;;3.13;1.17;;;25.70;40.00;;;;;;5076053;28;20233;-72
2024/04/02 07:48:57;;;;;;;1.83;0.93;;;25.60;40.10;;;;;;5075400;28;20214;-71
2024/04/02 07:51:24;;;;;;;2.47;1.03;;;25.50;40.40;;;;;;5076057;28;20709;-68
2024/04/02 07:53:53;;;;;;;6.00;1.03;;;25.40;40.80;;;;;;5072677;28;20187;-70
2024/04/02 07:56:21;;;;;;;2.03;0.93;;;25.30;41.10;;;;;;5072177;28;20674;-68
2024/04/02 07:58:49;;;;;;;3.73;1.47;;;25.30;40.80;;;;;;5075647;28;20656;-69
2024/04/02 08:01:17;;;;;;;2.97;1.20;;;25.30;41.50;;;;;;5076522;28;20664;-70
2024/04/02 08:03:45;;;;;;;7.33;1.40;;;25.10;41.80;;;;;;5081242;28;20191;-74
2024/04/02 08:06:12;;;;;;;5.43;1.30;;;25.10;42.30;;;;;;5078668;28;20191;-71
2024/04/02 08:08:40;;;;;;;4.43;1.47;;;25.00;42.20;;;;;;5075058;28;20183;-71
2024/04/02 08:11:08;;;;;;;2.13;1.30;;;24.90;42.40;;;;;;5075180;28;20175;-72
2024/04/02 08:13:35;;;;;;;4.03;1.17;;;24.90;42.30;;;;;;5079218;28;20163;-70
2024/04/02 08:16:03;;;;;;;5.73;1.47;;;24.80;42.90;;;;;;5075109;28;20187;-70
2024/04/02 08:18:31;;;;;;;2.37;1.53;;;24.60;43.80;;;;;;5073763;28;20801;-70
2024/04/02 08:20:58;;;;;;;4.43;2.10;;;24.50;44.30;;;;;;5075294;28;20178;-70
2024/04/02 08:23:26;;;;;;;5.60;1.80;;;24.30;44.90;;;;;;5071420;28;20195;-71
2024/04/02 08:25:53;;;;;;;5.43;1.90;;;24.30;44.90;;;;;;5075481;28;20178;-70
2024/04/02 08:28:21;;;;;;;3.73;2.27;;;24.30;44.70;;;;;;5074766;28;20269;-67
2024/04/02 08:30:48;;;;;;;5.53;2.13;;;24.30;44.10;;;;;;5081107;28;20190;-69
2024/04/02 08:33:16;;;;;;;2.73;1.90;;;24.40;43.90;;;;;;5079750;28;20195;-71
2024/04/02 08:35:48;;;;;;;4.93;2.03;;;24.30;44.00;;;;;;5076872;28;20278;-69
2024/04/02 08:38:16;;;;;;;4.87;2.33;;;24.30;44.20;;;;;;5078193;28;20259;-70
2024/04/02 08:40:50;;;;;;;5.63;2.50;;;24.30;44.60;;;;;;5076487;28;20257;-69
2024/04/02 08:43:22;;;;;;;5.83;2.23;;;24.20;44.40;;;;;;5078274;28;20218;-72
2024/04/02 08:45:50;;;;;;;4.80;1.63;;;24.20;44.30;;;;;;5079878;28;20273;-70
2024/04/02 08:48:18;;;;;;;4.23;1.80;;;24.10;44.60;;;;;;5077069;28;20188;-70
2024/04/02 08:50:47;;;;;;;2.73;1.70;;;23.90;44.90;;;;;;5069761;28;20171;-71
2024/04/02 08:53:14;;;;;;;5.17;1.50;;;23.90;44.60;;;;;;5071392;28;20266;-71
2024/04/02 08:55:42;;;;;;;2.57;1.43;;;23.80;44.70;;;;;;5071954;28;20183;-70
2024/04/02 08:58:10;;;;;;;2.80;1.50;;;23.80;43.30;;;;;;5073416;28;20352;-70
2024/04/02 09:00:38;;;;;;;2.97;1.43;;;23.80;43.60;;;;;;5074196;28;20510;-71
2024/04/02 09:03:07;;;;;;;3.60;1.70;;;23.70;43.70;;;;;;5072534;28;20266;-70
2024/04/02 09:05:34;;;;;;;4.30;1.20;;;23.60;43.70;;;;;;5080752;28;20383;-71
2024/04/02 09:08:06;;;;;;;3.27;1.17;;;23.60;42.50;;;;;;5081409;28;20613;-71
2024/04/02 09:10:35;;;;;;;4.03;1.20;;;23.60;41.80;;;;;;5076193;28;20270;-70
2024/04/02 09:13:02;;;;;;;2.57;1.20;;;23.60;41.80;;;;;;5081620;28;20575;-68
2024/04/02 09:15:30;;;;;;;2.90;1.20;;;23.40;41.60;;;;;;5079172;28;20258;-69
2024/04/02 09:17:57;;;;;;;2.43;1.10;;;23.60;40.90;;;;;;5074810;28;20218;-70
2024/04/02 09:20:24;;;;;;;1.83;1.10;;;23.60;40.80;;;;;;5071720;28;20648;-73
2024/04/02 09:22:53;;;;;;;2.47;1.00;;;23.50;40.70;;;;;;5071912;28;20199;-70
2024/04/02 09:25:21;;;;;;;1.00;0.90;;;23.50;40.50;;;;;;5073486;28;20180;-76
2024/04/02 09:27:50;;;;;;;2.00;1.00;;;23.40;40.80;;;;;;5070060;28;20563;-74
2024/04/02 09:30:18;;;;;;;2.50;1.03;;;23.30;41.00;;;;;;5068438;28;20184;-71
2024/04/02 09:32:46;;;;;;;2.83;1.00;;;23.30;40.80;;;;;;5073265;28;20730;-72
2024/04/02 09:35:21;;;;;;;2.40;1.20;;;23.30;40.80;;;;;;5069095;28;20695;-73
2024/04/02 09:37:51;;;;;;;3.40;1.20;;;23.20;41.40;;;;;;5073148;28;20770;-74
2024/04/02 09:40:20;;;;;;;2.73;1.00;;;23.10;41.40;;;;;;5072599;28;20760;-73
2024/04/02 09:42:49;;;;;;;1.50;0.90;;;23.00;41.90;;;;;;5073086;28;20202;-75
2024/04/02 09:45:20;;;;;;;3.57;1.20;;;22.90;41.90;;;;;;5072967;28;20270;-76
2024/04/02 09:47:49;;;;;;;1.70;1.20;;;22.90;42.20;;;;;;5069903;28;20218;-72
2024/04/02 09:50:18;;;;;;;3.43;1.27;;;22.80;42.40;;;;;;5063004;28;20184;-72
2024/04/02 09:52:46;;;;;;;2.03;1.00;;;22.80;42.50;;;;;;5074638;28;20262;-73
2024/04/02 09:55:15;;;;;;;1.90;1.13;;;22.70;43.20;;;;;;5067987;28;20182;-73
2024/04/02 09:57:43;;;;;;;2.30;0.90;;;22.60;43.20;;;;;;5068954;28;20226;-73
2024/04/02 10:00:11;;;;;;;3.10;1.20;;;22.50;43.40;;;;;;5050186;28;20185;-75
2024/04/02 10:02:40;;;;;;;1.97;1.07;;;22.50;43.20;;;;;;5055540;28;20210;-73
2024/04/02 10:05:10;;;;;;;2.90;1.20;;;22.40;43.60;;;;;;5072286;28;20179;-73
2024/04/02 10:07:43;;;;;;;1.20;1.10;;;22.40;44.00;;;;;;5073483;28;20198;-72
2024/04/02 10:10:13;;;;;;;2.87;1.20;;;22.30;44.00;;;;;;5073851;28;20209;-74
2024/04/02 10:12:41;;;;;;;1.03;0.87;;;22.20;44.10;;;;;;5069900;28;20210;-73
2024/04/02 10:15:12;;;;;;;2.73;1.27;;;22.20;44.50;;;;;;5068802;28;20184;-74
2024/04/02 10:17:40;;;;;;;2.57;1.20;;;22.10;45.00;;;;;;5072314;28;20218;-74
2024/04/02 10:20:37;;;;;;;1.90;1.00;;;22.00;45.30;;;;;;5068574;28;20191;-72
2024/04/02 10:23:08;;;;;;;2.57;1.00;;;21.90;45.70;;;;;;5053616;28;20191;-74
2024/04/02 10:25:37;;;;;;;2.03;0.80;;;21.80;46.20;;;;;;5065172;28;20329;-74
2024/04/02 10:28:09;;;;;;;1.37;0.90;;;21.80;46.20;;;;;;5083728;28;20206;-73
2024/04/02 10:30:43;;;;;;;2.87;1.20;;;21.80;46.40;;;;;;5073622;28;20721;-71
2024/04/02 10:33:22;;;;;;;2.63;1.50;;;21.80;46.80;;;;;;5070687;28;20175;-72
2024/04/02 10:35:49;;;;;;;1.87;1.20;;;21.80;47.00;;;;;;5072368;28;20174;-73
2024/04/02 10:38:17;;;;;;;2.73;0.90;;;21.80;46.80;;;;;;5070845;28;20224;-73
2024/04/02 10:40:45;;;;;;;4.07;1.00;;;21.70;47.20;;;;;;5073647;28;20184;-72
2024/04/02 10:43:13;;;;;;;5.20;1.10;;;21.60;47.30;;;;;;5071636;28;20252;-72
2024/04/02 10:45:41;;;;;;;4.77;1.10;;;21.60;47.50;;;;;;5071979;28;20657;-71
2024/04/02 10:48:08;;;;;;;2.57;1.03;;;21.50;48.00;;;;;;5074469;28;20267;-71
2024/04/02 10:50:36;;;;;;;2.37;0.93;;;21.50;48.20;;;;;;5075362;28;20477;-71
2024/04/02 10:53:07;;;;;;;1.40;0.83;;;21.40;48.50;;;;;;5077632;28;20668;-71
2024/04/02 10:55:34;;;;;;;1.70;1.03;;;21.30;48.50;;;;;;5072481;28;20189;-72
2024/04/02 10:58:02;;;;;;;1.67;1.10;;;21.30;48.90;;;;;;5057201;28;20225;-72
2024/04/02 11:00:30;;;;;;;3.70;1.20;;;21.30;49.50;;;;;;5078674;28;20210;-72
2024/04/02 11:02:58;;;;;;;3.03;0.93;;;21.20;49.40;;;;;;5070781;28;20182;-71
2024/04/02 11:05:26;;;;;;;2.37;1.20;;;21.20;49.40;;;;;;5073010;28;20179;-71
2024/04/02 11:07:53;;;;;;;2.80;1.07;;;21.20;49.40;;;;;;5071512;28;20214;-71
2024/04/02 11:10:21;;;;;;;2.00;0.90;;;21.10;49.80;;;;;;5058992;28;20637;-72
2024/04/02 11:12:49;;;;;;;1.60;1.00;;;21.10;49.80;;;;;;5054439;28;20218;-74
2024/04/02 11:15:19;;;;;;;2.80;1.10;;;21.00;50.00;;;;;;5076976;28;20605;-71
2024/04/02 11:17:47;;;;;;;3.27;1.10;;;20.90;50.40;;;;;;5078442;28;20265;-72
2024/04/02 11:20:15;;;;;;;2.10;1.10;;;20.90;50.30;;;;;;5075743;28;20182;-71
2024/04/02 11:25:28;;;;;;;3.70;1.10;;;20.80;51.20;;;;;;5065259;28;20219;-71
2024/04/02 11:28:05;;;;;;;1.43;0.97;;;20.70;51.80;;;;;;5070842;28;20265;-71
2024/04/02 11:30:33;;;;;;;2.70;1.20;;;20.70;51.20;;;;;;5067449;28;20195;-72
2024/04/02 11:33:00;;;;;;;3.27;1.10;;;20.80;50.40;;;;;;5066610;28;20185;-72
2024/04/02 11:35:29;;;;;;;5.73;1.50;;;20.90;50.10;;;;;;5075693;28;20186;-71
2024/04/02 11:37:56;;;;;;;1.40;0.90;;;20.90;50.00;;;;;;5070593;28;20253;-71
2024/04/02 11:40:24;;;;;;;2.10;1.13;;;20.80;50.20;;;;;;5065179;28;21028;-71
2024/04/02 11:42:51;;;;;;;6.83;1.03;;;20.80;50.30;;;;;;5073245;28;20265;-72
2024/04/02 11:45:21;;;;;;;1.73;1.10;;;20.80;49.90;;;;;;5066924;28;20259;-71
2024/04/02 11:47:52;;;;;;;1.70;0.80;;;20.80;50.60;;;;;;5071016;28;20237;-72
2024/04/02 11:50:19;;;;;;;2.90;1.10;;;20.80;50.80;;;;;;5071917;28;20603;-70
2024/04/02 11:52:49;;;;;;;1.07;0.80;;;20.80;49.90;;;;;;5074264;28;20199;-71
2024/04/02 11:55:16;;;;;;;2.93;1.00;;;20.80;50.30;;;;;;5071443;28;20183;-71
2024/04/02 12:00:29;;;;;;;3.17;1.27;;;20.80;50.10;;;;;;5071437;28;20542;-71
2024/04/02 12:02:57;;;;;;;3.27;0.97;;;20.80;50.30;;;;;;5069672;28;20190;-72
2024/04/02 12:05:24;;;;;;;3.00;1.20;;;20.60;50.50;;;;;;5072759;28;20179;-73
2024/04/02 12:07:52;;;;;;;2.27;1.17;;;20.60;50.70;;;;;;5075910;28;20190;-72
2024/04/02 12:10:19;;;;;;;2.90;1.10;;;20.50;51.00;;;;;;5071751;28;20167;-72
2024/04/02 12:12:47;;;;;;;3.50;1.00;;;20.50;50.80;;;;;;5084440;28;20186;-71
2024/04/02 12:15:14;;;;;;;3.93;0.90;;;20.50;50.70;;;;;;5070402;28;20178;-73
2024/04/02 12:17:43;;;;;;;2.87;0.90;;;20.50;50.80;;;;;;5083623;28;20247;-74
2024/04/02 12:20:12;;;;;;;5.97;1.27;;;20.40;51.00;;;;;;5071977;28;20228;-74
2024/04/02 12:22:40;;;;;;;4.10;1.03;;;20.30;51.30;;;;;;5076484;28;20262;-71
2024/04/02 12:25:07;;;;;;;2.03;1.10;;;20.30;51.60;;;;;;5070429;28;20175;-71
2024/04/02 12:27:36;;;;;;;2.80;0.80;;;20.30;51.60;;;;;;5080897;28;20526;-70
2024/04/02 12:30:04;;;;;;;4.07;0.80;;;20.30;51.50;;;;;;5070759;28;20187;-71
2024/04/02 12:32:33;;;;;;;4.73;1.23;;;20.20;51.70;;;;;;5082630;28;20179;-73
2024/04/02 12:35:01;;;;;;;4.07;0.80;;;20.30;51.40;;;;;;5075405;28;20201;-71
2024/04/02 12:37:28;;;;;;;4.43;0.97;;;20.20;51.80;;;;;;5074181;28;20310;-72
2024/04/02 12:39:56;;;;;;;2.77;1.03;;;20.20;51.70;;;;;;5072619;28;20230;-70
2024/04/02 12:42:23;;;;;;;2.90;0.90;;;20.10;52.10;;;;;;5077762;28;20187;-74
2024/04/02 12:44:53;;;;;;;2.40;1.00;;;20.00;52.20;;;;;;5074037;28;20240;-71
2024/04/02 12:47:24;;;;;;;3.37;1.13;;;20.00;52.00;;;;;;5071695;28;20736;-72
2024/04/02 12:49:51;;;;;;;3.77;1.10;;;19.90;52.40;;;;;;5076914;28;20197;-70